logo
Search for airport 
image banner adimage banner adimage banner ad
image banner ad

FAMALA - Malabar

Located in , South Africa

ICAO - , IATA -

Data provided by Airmate  

General information

Coordinates: S29°0'43" E23°50'49"
Elevation is 3310 feet MSL.
 
View others Airports in Northern Cape

Operational data

Special qualification required
Current time UTC:
Current local time:
Weather at : - ( 0 km )
METAR: KI69 230416Z AUTO 20004KT 10SM CLR 11/M01 A3009 RMK AO1 T01081006
View NOTAMs / SUP AIP / TFR affecting this airport [VIEW]
Communications frequencies: [VIEW]

Runways:

RWY identifierQFULength (ft)Width (ft)SurfaceLDA (ft)
1070°328133SAND
28250°328133SAND
0637°213333SAND
24217°213333SAND

Airport contact information

Address: South Africa

Satellite view of FAMALA